createdAt,value
2022-09-13T00:00:41.717Z,97.21
2022-09-13T00:03:10.127Z,97.97
2022-09-13T00:05:38.289Z,97.51
2022-09-13T00:08:06.068Z,97.70
2022-09-13T00:10:35.476Z,97.29
2022-09-13T00:13:02.237Z,98.69
2022-09-13T00:15:28.843Z,100.00
2022-09-13T00:17:56.018Z,100.00
2022-09-13T00:20:22.719Z,100.00
2022-09-13T00:22:49.192Z,100.00
2022-09-13T00:25:15.701Z,100.00
2022-09-13T00:27:42.222Z,100.00
2022-09-13T00:30:09.484Z,100.00
2022-09-13T00:32:36.182Z,100.00
2022-09-13T00:35:04.698Z,100.00
2022-09-13T00:37:33.289Z,100.00
2022-09-13T00:40:00.657Z,100.00
2022-09-13T00:42:29.094Z,100.00
2022-09-13T00:45:02.804Z,100.00
2022-09-13T00:47:39.852Z,100.00
2022-09-13T00:50:14.569Z,100.00
2022-09-13T00:52:46.691Z,100.00
2022-09-13T00:55:31.192Z,100.00
2022-09-13T00:58:05.059Z,100.00
2022-09-13T01:00:31.874Z,100.00
2022-09-13T01:03:02.251Z,100.00
2022-09-13T01:05:36.114Z,100.00
2022-09-13T01:08:03.971Z,100.00
2022-09-13T01:10:31.813Z,100.00
2022-09-13T01:13:15.066Z,100.00
2022-09-13T01:15:41.725Z,100.00
2022-09-13T01:18:09.569Z,100.00
2022-09-13T01:21:21.206Z,100.00
2022-09-13T01:24:12.473Z,100.00
2022-09-13T01:26:57.113Z,100.00
2022-09-13T01:29:26.503Z,100.00
2022-09-13T01:31:58.764Z,100.00
2022-09-13T01:34:28.280Z,100.00
2022-09-13T01:37:00.240Z,100.00
2022-09-13T01:39:50.562Z,100.00
2022-09-13T01:42:27.088Z,100.00
2022-09-13T01:45:09.382Z,100.00
2022-09-13T01:47:52.353Z,100.00
2022-09-13T01:50:24.705Z,100.00
2022-09-13T01:52:57.175Z,100.00
2022-09-13T01:55:27.325Z,100.00
2022-09-13T01:58:06.809Z,100.00
2022-09-13T02:00:41.374Z,100.00
2022-09-13T02:03:14.753Z,100.00
2022-09-13T02:05:47.798Z,100.00
2022-09-13T02:08:21.761Z,100.00
2022-09-13T02:10:54.063Z,100.00
2022-09-13T02:13:25.804Z,100.00
2022-09-13T02:16:00.791Z,100.00
2022-09-13T02:18:36.466Z,100.00
2022-09-13T02:21:12.662Z,100.00
2022-09-13T02:23:47.260Z,100.00
2022-09-13T02:26:15.491Z,100.00
2022-09-13T02:28:48.600Z,100.00
2022-09-13T02:31:19.810Z,100.00
2022-09-13T02:33:54.536Z,100.00
2022-09-13T02:36:28.289Z,100.00
2022-09-13T02:39:02.508Z,100.00
2022-09-13T02:41:39.506Z,100.00
2022-09-13T02:44:19.814Z,100.00
2022-09-13T02:47:14.220Z,100.00
2022-09-13T02:49:52.800Z,100.00
2022-09-13T02:52:37.378Z,100.00
2022-09-13T02:55:18.931Z,100.00
2022-09-13T02:57:48.646Z,100.00
2022-09-13T03:00:15.280Z,100.00
2022-09-13T03:02:44.124Z,100.00
2022-09-13T03:05:11.008Z,100.00
2022-09-13T03:07:37.515Z,100.00
2022-09-13T03:10:15.187Z,100.00
2022-09-13T03:13:00.404Z,100.00
2022-09-13T03:16:06.605Z,100.00
2022-09-13T03:19:03.588Z,100.00
2022-09-13T03:21:58.043Z,100.00
2022-09-13T03:24:54.929Z,100.00
2022-09-13T03:27:49.675Z,100.00
2022-09-13T03:30:18.154Z,100.00
2022-09-13T03:33:00.394Z,100.00
2022-09-13T03:35:36.418Z,100.00
2022-09-13T03:38:14.685Z,100.00
2022-09-13T03:41:00.105Z,100.00
2022-09-13T03:43:41.680Z,100.00
2022-09-13T03:46:35.121Z,100.00
2022-09-13T03:49:06.705Z,100.00
2022-09-13T03:51:33.985Z,100.00
2022-09-13T03:54:04.852Z,100.00
2022-09-13T03:56:31.530Z,100.00
2022-09-13T03:58:58.496Z,100.00
2022-09-13T04:01:25.722Z,100.00
2022-09-13T04:03:56.346Z,100.00
2022-09-13T04:06:23.233Z,100.00
2022-09-13T04:08:49.889Z,100.00
2022-09-13T04:11:16.533Z,100.00
2022-09-13T04:13:43.054Z,100.00
2022-09-13T04:16:09.578Z,100.00
2022-09-13T04:18:36.256Z,100.00
2022-09-13T04:21:04.626Z,100.00
2022-09-13T04:23:31.473Z,100.00
2022-09-13T04:26:05.181Z,100.00
2022-09-13T04:28:31.764Z,100.00
2022-09-13T04:30:58.294Z,100.00
2022-09-13T04:33:25.166Z,100.00
2022-09-13T04:35:58.442Z,100.00
2022-09-13T04:38:24.965Z,100.00
2022-09-13T04:40:56.070Z,100.00
2022-09-13T04:43:23.652Z,100.00
2022-09-13T04:45:50.812Z,100.00
2022-09-13T04:48:17.418Z,100.00
2022-09-13T04:50:44.896Z,100.00
2022-09-13T04:53:11.854Z,100.00
2022-09-13T04:55:38.989Z,100.00
2022-09-13T04:58:05.574Z,100.00
2022-09-13T05:00:33.631Z,100.00
2022-09-13T05:03:00.451Z,100.00
2022-09-13T05:05:28.848Z,100.00
2022-09-13T05:07:55.644Z,100.00
2022-09-13T05:10:22.180Z,100.00
2022-09-13T05:12:49.093Z,100.00
2022-09-13T05:15:15.720Z,100.00
2022-09-13T05:17:42.230Z,100.00
2022-09-13T05:20:09.479Z,100.00
2022-09-13T05:22:35.984Z,100.00
2022-09-13T05:25:02.472Z,100.00
2022-09-13T05:27:28.998Z,100.00
2022-09-13T05:29:55.488Z,100.00
2022-09-13T05:32:22.018Z,100.00
2022-09-13T05:34:48.504Z,100.00
2022-09-13T05:37:15.031Z,100.00
2022-09-13T05:40:07.348Z,100.00
2022-09-13T05:42:28.046Z,100.00
2022-09-13T05:44:54.584Z,100.00
2022-09-13T05:47:21.317Z,100.00
2022-09-13T05:50:08.984Z,100.00
2022-09-13T05:52:34.303Z,100.00
2022-09-13T05:55:00.795Z,100.00
2022-09-13T05:57:27.294Z,100.00
2022-09-13T05:59:53.796Z,100.00
2022-09-13T06:02:20.352Z,100.00
2022-09-13T06:04:47.040Z,100.00
2022-09-13T06:07:13.565Z,100.00
2022-09-13T06:09:40.035Z,100.00
2022-09-13T06:12:06.855Z,100.00
2022-09-13T06:14:33.378Z,100.00
2022-09-13T06:16:59.857Z,100.00
2022-09-13T06:19:26.359Z,100.00
2022-09-13T06:21:52.860Z,100.00
2022-09-13T06:24:19.357Z,100.00
2022-09-13T06:26:45.839Z,100.00
2022-09-13T06:29:12.984Z,100.00
2022-09-13T06:31:43.753Z,100.00
2022-09-13T06:34:12.552Z,100.00
2022-09-13T06:36:39.087Z,100.00
2022-09-13T06:39:06.618Z,100.00
2022-09-13T06:41:33.601Z,100.00
2022-09-13T06:44:02.082Z,100.00
2022-09-13T06:46:30.631Z,100.00
2022-09-13T06:49:04.736Z,100.00
2022-09-13T06:51:32.612Z,100.00
2022-09-13T06:54:00.106Z,100.00
2022-09-13T06:56:29.875Z,100.00
2022-09-13T06:58:58.742Z,100.00
2022-09-13T07:01:34.311Z,100.00
2022-09-13T07:04:04.209Z,100.00
2022-09-13T07:06:36.695Z,100.00
2022-09-13T07:09:05.924Z,100.00
2022-09-13T07:11:36.305Z,100.00
2022-09-13T07:14:03.994Z,100.00
2022-09-13T07:16:32.483Z,100.00
2022-09-13T07:19:01.498Z,100.00
2022-09-13T07:21:29.371Z,100.00
2022-09-13T07:23:57.221Z,100.00
2022-09-13T07:26:24.975Z,100.00
2022-09-13T07:28:55.368Z,100.00
2022-09-13T07:31:28.947Z,100.00
2022-09-13T07:33:58.559Z,100.00
2022-09-13T07:36:26.717Z,100.00
2022-09-13T07:38:53.270Z,100.00
2022-09-13T07:41:22.116Z,100.00
2022-09-13T07:43:49.500Z,100.00
2022-09-13T07:46:21.888Z,100.00
2022-09-13T07:48:50.093Z,100.00
2022-09-13T07:51:20.798Z,100.00
2022-09-13T07:53:50.709Z,100.00
2022-09-13T07:56:23.468Z,100.00
2022-09-13T07:58:51.479Z,100.00
2022-09-13T08:01:26.494Z,100.00
2022-09-13T08:03:58.427Z,100.00
2022-09-13T08:06:26.833Z,100.00
2022-09-13T08:08:54.072Z,100.00
2022-09-13T08:11:26.061Z,100.00
2022-09-13T08:13:53.359Z,100.00
2022-09-13T08:16:21.664Z,100.00
2022-09-13T08:18:51.001Z,100.00
2022-09-13T08:21:18.040Z,100.00
2022-09-13T08:23:45.152Z,100.00
2022-09-13T08:26:11.896Z,100.00
2022-09-13T08:28:43.010Z,100.00
2022-09-13T08:31:12.267Z,100.00
2022-09-13T08:33:41.966Z,100.00
2022-09-13T08:36:10.833Z,98.50
2022-09-13T08:38:37.699Z,99.58
2022-09-13T08:41:25.892Z,95.22
2022-09-13T08:44:23.882Z,96.92
2022-09-13T08:46:51.261Z,97.75
2022-09-13T08:49:32.309Z,93.66
2022-09-13T08:52:29.933Z,94.54
2022-09-13T08:54:58.570Z,87.42
2022-09-13T08:58:09.930Z,92.38
2022-09-13T09:00:41.233Z,88.62
2022-09-13T09:03:26.776Z,92.59
2022-09-13T09:05:54.528Z,87.11
2022-09-13T09:08:31.345Z,91.41
2022-09-13T09:11:03.234Z,90.12
2022-09-13T09:13:48.230Z,92.00
2022-09-13T09:16:39.669Z,89.07
2022-09-13T09:19:22.876Z,89.33
2022-09-13T09:21:51.741Z,84.23
2022-09-13T09:24:23.390Z,80.32
2022-09-13T09:26:50.392Z,80.76
2022-09-13T09:29:26.171Z,82.41
2022-09-13T09:32:20.529Z,82.71
2022-09-13T09:35:07.596Z,80.45
2022-09-13T09:37:37.083Z,77.52
2022-09-13T09:40:11.281Z,75.75
2022-09-13T09:42:49.409Z,72.48
2022-09-13T09:45:32.244Z,75.81
2022-09-13T09:48:04.653Z,73.32
2022-09-13T09:50:36.483Z,74.57
2022-09-13T09:53:14.771Z,75.01
2022-09-13T09:55:53.403Z,71.73
2022-09-13T09:58:37.453Z,73.28
2022-09-13T10:01:09.549Z,72.09
2022-09-13T10:03:40.019Z,70.68
2022-09-13T10:06:14.487Z,72.59
2022-09-13T10:08:44.097Z,75.92
2022-09-13T10:11:10.903Z,72.67
2022-09-13T10:13:38.840Z,70.03
2022-09-13T10:16:21.611Z,71.08
2022-09-13T10:18:48.511Z,70.14
2022-09-13T10:21:18.034Z,71.54
2022-09-13T10:23:47.149Z,70.31
2022-09-13T10:26:18.031Z,69.54
2022-09-13T10:28:59.854Z,68.33
2022-09-13T10:31:34.445Z,67.12
2022-09-13T10:34:04.610Z,69.61
2022-09-13T10:36:52.612Z,66.61
2022-09-13T10:39:22.423Z,68.35
2022-09-13T10:41:53.745Z,68.04
2022-09-13T10:44:31.864Z,68.78
2022-09-13T10:47:02.014Z,69.94
2022-09-13T10:49:36.290Z,70.78
2022-09-13T10:52:33.429Z,72.75
2022-09-13T10:55:21.284Z,74.03
2022-09-13T10:57:50.063Z,74.51
2022-09-13T11:00:22.898Z,69.86
2022-09-13T11:03:05.856Z,67.73
2022-09-13T11:05:54.318Z,67.02
2022-09-13T11:08:36.348Z,66.90
2022-09-13T11:11:30.836Z,67.79
2022-09-13T11:14:21.852Z,68.33
2022-09-13T11:17:07.186Z,68.69
2022-09-13T11:19:43.666Z,68.29
2022-09-13T11:22:33.419Z,66.11
2022-09-13T11:25:05.340Z,67.25
2022-09-13T11:28:03.435Z,66.75
2022-09-13T11:30:35.852Z,67.44
2022-09-13T11:33:27.019Z,69.36
2022-09-13T11:36:15.293Z,70.85
2022-09-13T11:38:56.894Z,69.12
2022-09-13T11:41:46.602Z,68.93
2022-09-13T11:44:37.221Z,69.44
2022-09-13T11:47:15.325Z,69.53
2022-09-13T11:50:03.137Z,69.79
2022-09-13T11:52:39.099Z,66.67
2022-09-13T11:55:16.870Z,68.56
2022-09-13T11:57:53.185Z,70.25
2022-09-13T12:00:27.903Z,68.53
2022-09-13T12:03:26.334Z,72.20
2022-09-13T12:06:01.481Z,71.79
2022-09-13T12:08:42.557Z,72.57
2022-09-13T12:11:16.082Z,73.27
2022-09-13T12:14:00.811Z,73.94
2022-09-13T12:16:39.363Z,75.02
2022-09-13T12:19:15.759Z,74.82
2022-09-13T12:21:44.430Z,76.66
2022-09-13T12:24:21.735Z,72.25
2022-09-13T12:26:57.132Z,72.59
2022-09-13T12:29:54.199Z,73.23
2022-09-13T12:32:23.712Z,71.97
2022-09-13T12:34:57.659Z,71.39
2022-09-13T12:38:02.008Z,72.24
2022-09-13T12:40:54.843Z,74.45
2022-09-13T12:43:55.319Z,73.79
2022-09-13T12:46:27.960Z,72.39
2022-09-13T12:49:03.549Z,71.39
2022-09-13T12:51:54.317Z,71.72
2022-09-13T12:54:39.563Z,71.39
2022-09-13T12:57:28.243Z,70.77
2022-09-13T13:00:20.998Z,70.52
2022-09-13T13:03:11.899Z,70.39
2022-09-13T13:05:45.895Z,72.85
2022-09-13T13:08:21.530Z,73.11
2022-09-13T13:11:06.709Z,75.05
2022-09-13T13:13:43.155Z,75.97
2022-09-13T13:16:23.632Z,74.62
2022-09-13T13:18:58.336Z,77.80
2022-09-13T13:21:39.116Z,80.38
2022-09-13T13:24:18.768Z,80.34
2022-09-13T13:26:56.566Z,75.38
2022-09-13T13:29:30.147Z,75.83
2022-09-13T13:32:08.399Z,77.84
2022-09-13T13:34:50.229Z,79.40
2022-09-13T13:37:19.431Z,80.36
2022-09-13T13:39:47.403Z,79.22
2022-09-13T13:42:27.943Z,80.50
2022-09-13T13:44:54.418Z,79.61
2022-09-13T13:47:20.849Z,78.40
2022-09-13T13:49:52.693Z,79.79
2022-09-13T13:52:22.477Z,78.25
2022-09-13T13:54:55.729Z,77.87
2022-09-13T13:57:38.891Z,75.99
2022-09-13T14:00:15.741Z,76.48
2022-09-13T14:02:53.511Z,77.04
2022-09-13T14:05:41.793Z,78.92
2022-09-13T14:08:32.741Z,76.16
2022-09-13T14:11:11.129Z,77.72
2022-09-13T14:14:03.315Z,77.58
2022-09-13T14:17:14.145Z,77.07
2022-09-13T14:19:50.182Z,76.92
2022-09-13T14:22:19.135Z,79.46
2022-09-13T14:24:51.256Z,77.48
2022-09-13T14:27:20.197Z,76.43
2022-09-13T14:29:49.388Z,76.09
2022-09-13T14:32:23.814Z,75.72
2022-09-13T14:34:59.630Z,77.05
2022-09-13T14:37:32.792Z,76.25
2022-09-13T14:40:08.357Z,76.88
2022-09-13T14:42:43.671Z,75.77
2022-09-13T14:45:16.700Z,75.82
2022-09-13T14:47:47.619Z,75.16
2022-09-13T14:50:22.733Z,74.88
2022-09-13T14:52:53.726Z,75.08
2022-09-13T14:55:28.706Z,76.16
2022-09-13T14:58:04.209Z,74.92
2022-09-13T15:00:44.012Z,75.49
2022-09-13T15:03:16.615Z,78.03
2022-09-13T15:05:51.979Z,75.90
2022-09-13T15:08:33.513Z,77.36
2022-09-13T15:11:12.725Z,79.26
2022-09-13T15:13:42.830Z,78.19
2022-09-13T15:16:29.681Z,77.73
2022-09-13T15:19:26.924Z,76.86
2022-09-13T15:22:03.140Z,76.43
2022-09-13T15:24:33.280Z,75.57
2022-09-13T15:27:07.496Z,75.46
2022-09-13T15:29:37.485Z,74.90
2022-09-13T15:32:06.623Z,76.46
2022-09-13T15:34:46.624Z,74.51
2022-09-13T15:37:18.770Z,72.48
2022-09-13T15:39:52.870Z,73.88
2022-09-13T15:42:19.582Z,72.11
2022-09-13T15:44:46.886Z,71.85
2022-09-13T15:47:18.290Z,72.14
2022-09-13T15:49:50.999Z,72.20
2022-09-13T15:52:22.618Z,72.65
2022-09-13T15:54:50.635Z,72.52
2022-09-13T15:57:22.551Z,72.42
2022-09-13T15:59:49.443Z,73.39
2022-09-13T16:02:23.172Z,74.25
2022-09-13T16:04:50.297Z,75.25
2022-09-13T16:07:17.871Z,75.27
2022-09-13T16:09:45.495Z,75.35
2022-09-13T16:12:12.048Z,74.75
2022-09-13T16:14:39.277Z,76.14
2022-09-13T16:17:23.811Z,77.15
2022-09-13T16:19:51.278Z,76.77
2022-09-13T16:22:18.071Z,78.82
2022-09-13T16:24:44.606Z,80.16
2022-09-13T16:27:16.703Z,78.77
2022-09-13T16:29:44.599Z,78.61
2022-09-13T16:32:11.989Z,79.22
2022-09-13T16:34:38.559Z,79.80
2022-09-13T16:37:06.020Z,80.57
2022-09-13T16:39:32.829Z,81.02
2022-09-13T16:42:00.860Z,81.44
2022-09-13T16:44:27.645Z,83.76
2022-09-13T16:46:54.181Z,84.07
2022-09-13T16:49:20.788Z,85.46
2022-09-13T16:51:47.293Z,86.00
2022-09-13T16:54:13.964Z,86.60
2022-09-13T16:56:40.468Z,85.78
2022-09-13T16:59:06.999Z,87.85
2022-09-13T17:01:33.592Z,88.22
2022-09-13T17:04:00.513Z,88.15
2022-09-13T17:06:27.852Z,88.54
2022-09-13T17:08:57.073Z,88.28
2022-09-13T17:11:27.162Z,88.25
2022-09-13T17:13:56.370Z,89.95
2022-09-13T17:16:28.752Z,89.45
2022-09-13T17:18:58.215Z,89.85
2022-09-13T17:21:25.840Z,90.21
2022-09-13T17:23:53.099Z,90.03
2022-09-13T17:26:20.100Z,91.68
2022-09-13T17:28:46.672Z,89.10
2022-09-13T17:31:13.307Z,89.09
2022-09-13T17:33:39.873Z,89.25
2022-09-13T17:36:08.708Z,88.86
2022-09-13T17:38:36.499Z,89.02
2022-09-13T17:41:04.400Z,89.20
2022-09-13T17:43:31.070Z,89.74
2022-09-13T17:45:57.864Z,91.67
2022-09-13T17:48:24.414Z,90.33
2022-09-13T17:50:50.963Z,90.90
2022-09-13T17:53:17.471Z,90.92
2022-09-13T17:55:49.049Z,91.37
2022-09-13T17:58:16.156Z,90.68
2022-09-13T18:00:42.764Z,90.49
2022-09-13T18:03:09.587Z,90.72
2022-09-13T18:05:36.486Z,90.44
2022-09-13T18:08:03.281Z,89.64
2022-09-13T18:10:58.069Z,89.77
2022-09-13T18:13:18.437Z,89.95
2022-09-13T18:15:48.370Z,89.27
2022-09-13T18:18:16.497Z,89.59
2022-09-13T18:20:47.343Z,87.76
2022-09-13T18:23:14.120Z,87.99
2022-09-13T18:25:40.859Z,88.05
2022-09-13T18:28:07.418Z,89.36
2022-09-13T18:30:34.031Z,90.31
2022-09-13T18:33:00.825Z,91.30
2022-09-13T18:35:28.988Z,91.27
2022-09-13T18:37:55.750Z,91.93
2022-09-13T18:40:26.008Z,91.58
2022-09-13T18:42:52.633Z,92.11
2022-09-13T18:45:24.080Z,91.44
2022-09-13T18:47:50.587Z,91.60
2022-09-13T18:50:20.089Z,91.99
2022-09-13T18:52:46.965Z,92.04
2022-09-13T18:55:14.403Z,92.38
2022-09-13T18:57:41.177Z,92.26
2022-09-13T19:00:09.915Z,93.46
2022-09-13T19:02:51.975Z,92.65
2022-09-13T19:05:29.443Z,93.09
2022-09-13T19:07:58.001Z,93.54
2022-09-13T19:10:26.069Z,93.92
2022-09-13T19:12:57.156Z,94.02
2022-09-13T19:15:27.478Z,94.40
2022-09-13T19:17:57.798Z,93.60
2022-09-13T19:20:30.498Z,93.82
2022-09-13T19:22:58.967Z,92.89
2022-09-13T19:25:30.468Z,93.14
2022-09-13T19:27:57.884Z,92.78
2022-09-13T19:30:25.224Z,92.76
2022-09-13T19:32:55.774Z,93.68
2022-09-13T19:35:24.036Z,92.73
2022-09-13T19:37:50.803Z,93.79
2022-09-13T19:40:20.107Z,93.47
2022-09-13T19:42:47.047Z,94.18
2022-09-13T19:45:14.003Z,94.92
2022-09-13T19:48:25.759Z,96.20
2022-09-13T19:50:27.675Z,95.96
2022-09-13T19:52:54.430Z,95.84
2022-09-13T19:55:21.010Z,96.50
2022-09-13T19:57:47.516Z,97.47
2022-09-13T20:00:14.621Z,97.93
2022-09-13T20:02:41.178Z,98.68
2022-09-13T20:05:08.108Z,98.28
2022-09-13T20:07:35.945Z,98.13
2022-09-13T20:10:02.485Z,98.55
2022-09-13T20:12:28.952Z,98.62
2022-09-13T20:14:55.673Z,99.12
2022-09-13T20:17:22.176Z,99.33
2022-09-13T20:19:50.326Z,100.00
2022-09-13T20:22:17.073Z,100.00
2022-09-13T20:24:43.629Z,100.00
2022-09-13T20:27:10.445Z,100.00
2022-09-13T20:29:37.098Z,100.00
2022-09-13T20:32:04.074Z,100.00
2022-09-13T20:34:35.213Z,100.00
2022-09-13T20:37:01.857Z,100.00
2022-09-13T20:39:30.167Z,100.00
2022-09-13T20:41:56.691Z,100.00
2022-09-13T20:44:23.696Z,100.00
2022-09-13T20:46:50.198Z,100.00
2022-09-13T20:49:17.150Z,100.00
2022-09-13T20:51:46.792Z,100.00
2022-09-13T20:54:13.595Z,100.00
2022-09-13T20:56:40.444Z,100.00
2022-09-13T20:59:07.025Z,100.00
2022-09-13T21:01:34.388Z,100.00
2022-09-13T21:04:01.442Z,100.00
2022-09-13T21:06:30.454Z,100.00
2022-09-13T21:09:00.177Z,100.00
2022-09-13T21:11:34.231Z,100.00
2022-09-13T21:14:06.213Z,100.00
2022-09-13T21:16:39.358Z,100.00
2022-09-13T21:19:07.108Z,100.00
2022-09-13T21:21:36.293Z,100.00
2022-09-13T21:24:04.958Z,100.00
2022-09-13T21:26:32.508Z,100.00
2022-09-13T21:29:00.623Z,100.00
2022-09-13T21:31:32.460Z,100.00
2022-09-13T21:34:05.064Z,100.00
2022-09-13T21:36:34.698Z,100.00
2022-09-13T21:39:02.449Z,100.00
2022-09-13T21:41:30.478Z,100.00
2022-09-13T21:43:57.184Z,100.00
2022-09-13T21:46:29.127Z,100.00
2022-09-13T21:48:58.541Z,100.00
2022-09-13T21:51:30.938Z,100.00
2022-09-13T21:53:59.452Z,100.00
2022-09-13T21:56:28.490Z,100.00
2022-09-13T21:59:01.057Z,100.00
2022-09-13T22:01:36.324Z,100.00
2022-09-13T22:04:03.020Z,100.00
2022-09-13T22:06:35.287Z,100.00
2022-09-13T22:09:05.492Z,100.00
2022-09-13T22:11:37.120Z,100.00
2022-09-13T22:14:03.887Z,100.00
2022-09-13T22:16:35.352Z,100.00
2022-09-13T22:19:11.484Z,100.00
2022-09-13T22:21:41.148Z,100.00
2022-09-13T22:24:09.236Z,100.00
2022-09-13T22:26:40.962Z,100.00
2022-09-13T22:29:09.780Z,100.00
2022-09-13T22:31:41.411Z,100.00
2022-09-13T22:34:14.322Z,100.00
2022-09-13T22:36:43.520Z,100.00
2022-09-13T22:39:12.980Z,100.00
2022-09-13T22:41:39.958Z,100.00
2022-09-13T22:44:06.655Z,100.00
2022-09-13T22:46:36.128Z,100.00
2022-09-13T22:49:04.161Z,100.00
2022-09-13T22:51:31.437Z,100.00
2022-09-13T22:53:58.124Z,100.00
2022-09-13T22:56:28.503Z,100.00
2022-09-13T22:58:57.681Z,100.00
2022-09-13T23:01:25.176Z,100.00
2022-09-13T23:03:53.109Z,100.00
2022-09-13T23:06:21.464Z,100.00
2022-09-13T23:08:49.744Z,100.00
2022-09-13T23:11:21.292Z,100.00
2022-09-13T23:13:49.759Z,100.00
2022-09-13T23:16:17.561Z,100.00
2022-09-13T23:18:44.208Z,100.00
2022-09-13T23:21:13.345Z,100.00
2022-09-13T23:23:40.148Z,100.00
2022-09-13T23:26:10.039Z,100.00
2022-09-13T23:28:38.083Z,100.00
2022-09-13T23:31:15.784Z,100.00
2022-09-13T23:33:48.464Z,100.00
2022-09-13T23:36:20.927Z,100.00
2022-09-13T23:38:50.831Z,100.00
2022-09-13T23:41:19.066Z,100.00
2022-09-13T23:43:46.311Z,100.00
2022-09-13T23:46:13.092Z,100.00
2022-09-13T23:48:42.899Z,100.00
2022-09-13T23:51:13.002Z,100.00
2022-09-13T23:53:39.982Z,100.00
2022-09-13T23:56:08.529Z,100.00
2022-09-13T23:58:36.993Z,100.00
